Time;durP1;ratioP1;P1;durP2;ratioP2;P2;SDS_P1;SDS_P2;PMS_P1;PMS_P2;Temp;Humidity;BMP_temperature;BMP_pressure;BME280_temperature;BME280_humidity;BME280_pressure;Samples;Min_cycle;Max_cycle;Signal;HPM_P1;HPM_P2
2022/12/19 00:01:25;;;;;;;25.67;16.07;;;-3.30;75.70;;;-4.32;76.78;99110.13;5027044;28;20457;-76
2022/12/19 00:03:55;;;;;;;31.70;18.27;;;-3.30;75.80;;;-4.22;77.05;99104.25;5013796;28;20529;-79
2022/12/19 00:06:22;;;;;;;32.70;18.43;;;-3.30;76.00;;;-4.09;76.64;99110.47;5013529;28;20487;-79
2022/12/19 00:08:52;;;;;;;27.70;17.00;;;-3.30;76.00;;;-4.28;76.94;99111.63;5014052;28;20444;-78
2022/12/19 00:11:21;;;;;;;33.47;19.00;;;-3.30;76.10;;;-4.18;76.71;99103.13;5019346;28;20456;-78
2022/12/19 00:13:49;;;;;;;29.60;19.27;;;-3.30;76.10;;;-4.24;76.60;99108.78;5016927;28;20568;-76
2022/12/19 00:16:20;;;;;;;30.30;18.90;;;-3.30;76.10;;;-4.36;77.10;99095.38;5023734;28;20440;-77
2022/12/19 00:18:48;;;;;;;32.33;17.70;;;-3.40;75.80;;;-4.31;77.11;99103.91;5013649;28;20447;-76
2022/12/19 00:21:18;;;;;;;31.13;19.73;;;-3.40;76.00;;;-4.28;76.76;99094.91;5013199;28;20447;-77
2022/12/19 00:23:46;;;;;;;30.33;17.83;;;-3.40;76.00;;;-4.39;76.86;99089.47;5014531;28;20989;-75
2022/12/19 00:26:16;;;;;;;30.07;18.40;;;-3.50;75.80;;;-4.37;76.83;99096.34;5014253;28;20551;-77
2022/12/19 00:28:45;;;;;;;35.67;18.13;;;-3.50;76.00;;;-4.50;77.10;99088.34;5013656;28;20462;-77
2022/12/19 00:31:13;;;;;;;30.70;18.40;;;-3.50;75.90;;;-4.53;77.32;99063.91;5015884;28;20460;-77
2022/12/19 00:33:42;;;;;;;29.73;17.47;;;-3.60;76.00;;;-4.69;78.23;99025.28;5014909;28;20484;-78
2022/12/19 00:36:12;;;;;;;25.00;16.07;;;-3.60;76.70;;;-4.48;77.20;99090.84;5017588;28;20893;-77
2022/12/19 00:38:40;;;;;;;34.70;20.93;;;-3.50;76.20;;;-4.46;77.35;99084.56;5025517;28;20469;-77
2022/12/19 00:41:08;;;;;;;30.33;18.13;;;-3.50;76.30;;;-4.38;76.93;99097.28;5032099;28;20656;-78
2022/12/19 00:43:36;;;;;;;30.10;18.30;;;-3.50;76.30;;;-4.91;77.23;99042.41;5015704;28;20465;-78
2022/12/19 00:46:03;;;;;;;33.50;19.37;;;-3.60;76.00;;;-4.63;77.38;99088.19;5014377;28;20491;-78
2022/12/19 00:48:31;;;;;;;33.40;18.37;;;-3.60;76.20;;;-4.53;77.55;99087.66;5020394;28;20460;-80
2022/12/19 00:51:06;;;;;;;30.13;18.43;;;-3.70;76.60;;;-4.58;77.34;99080.03;5033334;28;20448;-78
2022/12/19 00:53:34;;;;;;;33.20;18.20;;;-3.60;76.70;;;-4.47;77.41;99100.50;5031032;28;20498;-77
2022/12/19 00:56:03;;;;;;;30.20;18.50;;;-3.70;76.80;;;-4.55;77.71;99090.38;5032671;28;20614;-79
2022/12/19 00:58:30;;;;;;;24.97;17.93;;;-3.70;76.70;;;-4.62;77.96;99084.66;5012695;28;20451;-78
2022/12/19 01:00:59;;;;;;;38.83;21.10;;;-3.70;76.70;;;-4.66;78.18;99069.94;5013826;28;20853;-77
2022/12/19 01:03:26;;;;;;;32.20;16.33;;;-3.70;77.00;;;-4.79;78.88;99074.25;5017688;28;20509;-79
2022/12/19 01:05:53;;;;;;;31.90;18.27;;;-3.80;77.20;;;-4.52;77.70;99094.63;5030508;28;20508;-77
2022/12/19 01:08:22;;;;;;;44.00;20.30;;;-3.70;77.60;;;-4.60;78.58;99095.97;5030338;28;20542;-77
2022/12/19 01:10:51;;;;;;;29.97;17.13;;;-3.70;77.60;;;-4.59;77.99;99110.84;5023124;28;20498;-75
2022/12/19 01:13:21;;;;;;;34.77;19.90;;;-3.70;77.60;;;-4.60;78.15;99095.97;5012474;28;20472;-77
2022/12/19 01:15:48;;;;;;;38.07;19.60;;;-3.70;77.70;;;-4.96;77.78;99010.19;5010998;28;20452;-73
2022/12/19 01:18:15;;;;;;;35.03;18.97;;;-3.60;77.80;;;-4.60;78.13;99088.03;5045263;28;20481;-77
2022/12/19 01:20:46;;;;;;;32.60;18.67;;;-3.60;77.80;;;-4.41;78.34;99095.66;5013480;28;20449;-77
2022/12/19 01:23:15;;;;;;;36.03;21.30;;;-3.60;77.70;;;-4.56;78.00;99096.59;5014422;28;20483;-77
2022/12/19 01:25:51;;;;;;;36.93;18.97;;;-3.60;77.50;;;-4.31;77.68;99103.91;5017351;28;20454;-78
2022/12/19 01:28:18;;;;;;;36.70;19.97;;;-3.50;77.40;;;-4.40;77.86;99112.38;5014816;28;20458;-76
2022/12/19 01:30:46;;;;;;;27.20;17.30;;;-3.50;77.20;;;-4.47;77.79;99095.22;5027921;28;20824;-76
2022/12/19 01:33:15;;;;;;;34.93;19.20;;;-3.50;77.30;;;-4.50;78.46;99087.47;5010723;28;20461;-77
2022/12/19 01:35:43;;;;;;;34.43;19.70;;;-3.50;77.40;;;-4.44;78.28;99080.03;5011617;28;20987;-76
2022/12/19 01:38:13;;;;;;;33.20;19.40;;;-3.50;77.30;;;-4.23;78.17;99079.66;5018245;28;20518;-76
2022/12/19 01:40:40;;;;;;;36.97;20.70;;;-3.50;77.70;;;-4.24;77.54;99087.66;5031611;28;20462;-74
2022/12/19 01:43:13;;;;;;;31.87;18.67;;;-3.40;77.70;;;-4.24;78.03;99066.56;5030769;28;20816;-77
2022/12/19 01:45:40;;;;;;;35.67;20.20;;;-3.40;77.80;;;-4.24;77.82;99067.41;5020804;28;20463;-75
2022/12/19 01:48:18;;;;;;;32.60;18.23;;;-3.40;77.40;;;-4.41;78.04;99081.66;5011983;28;20483;-77
2022/12/19 01:50:54;;;;;;;31.70;20.83;;;-3.40;77.20;;;-4.31;78.08;99082.78;5012386;28;20444;-77
2022/12/19 01:53:22;;;;;;;36.00;19.87;;;-3.40;77.40;;;-4.19;77.84;99085.59;5011061;28;20891;-76
2022/12/19 01:55:50;;;;;;;33.53;20.70;;;-3.40;77.30;;;-4.55;78.28;99059.59;5011536;28;20439;-76
2022/12/19 01:58:19;;;;;;;37.07;19.57;;;-3.40;77.40;;;-4.38;78.68;99085.91;5015868;28;20451;-75
2022/12/19 02:00:46;;;;;;;30.13;18.87;;;-3.40;77.80;;;-4.56;78.97;99076.34;5034296;28;20446;-76
2022/12/19 02:03:20;;;;;;;40.50;21.00;;;-3.50;77.90;;;-4.43;79.07;99083.53;5027182;28;20443;-74
2022/12/19 02:05:48;;;;;;;38.07;20.70;;;-3.50;78.10;;;-4.34;78.55;99075.03;5030013;28;20439;-75
2022/12/19 02:08:16;;;;;;;36.93;21.57;;;-3.40;78.20;;;-4.36;78.48;99079.56;5033690;28;20439;-73
2022/12/19 02:10:43;;;;;;;30.47;18.07;;;-3.40;78.20;;;-4.35;78.26;99097.09;5036211;28;20618;-77
2022/12/19 02:13:12;;;;;;;36.93;19.80;;;-3.40;77.80;;;-4.44;78.63;99087.13;5019117;28;20498;-78
2022/12/19 02:15:52;;;;;;;32.30;19.00;;;-3.50;78.00;;;-4.37;78.84;99083.16;5030189;28;20484;-77
2022/12/19 02:18:32;;;;;;;34.03;17.77;;;-3.50;78.20;;;-4.67;79.38;99070.88;5025654;28;20529;-77
2022/12/19 02:21:20;;;;;;;38.50;19.90;;;-3.50;78.20;;;-4.46;79.21;99094.28;5026364;28;20462;-78
2022/12/19 02:24:32;;;;;;;36.07;18.30;;;-3.60;78.60;;;-4.39;79.06;99087.66;5019904;28;21091;-75
2022/12/19 02:27:32;;;;;;;40.27;20.80;;;-3.50;78.60;;;-4.34;78.58;99082.13;5029969;28;20450;-77
2022/12/19 02:30:07;;;;;;;33.23;19.37;;;-3.40;78.60;;;-4.42;78.56;99077.31;5024381;28;20509;-76
2022/12/19 02:32:48;;;;;;;38.53;21.07;;;-3.40;78.50;;;-4.30;78.63;99081.84;5021048;28;20467;-75
2022/12/19 02:35:27;;;;;;;37.43;20.40;;;-3.40;78.40;;;-4.09;78.44;99081.44;5017573;28;20463;-76
2022/12/19 02:38:08;;;;;;;26.10;15.53;;;-3.30;78.40;;;-4.41;78.63;99077.19;5014906;28;20476;-78
2022/12/19 02:40:43;;;;;;;33.27;18.07;;;-3.30;77.90;;;-4.38;79.20;99073.53;5016734;28;20542;-75
2022/12/19 02:43:12;;;;;;;33.83;19.73;;;-3.40;78.60;;;-4.43;78.97;99089.63;5011325;28;20448;-77
2022/12/19 02:45:40;;;;;;;37.97;20.47;;;-3.40;78.40;;;-4.32;78.81;99091.66;5012174;28;20471;-76
2022/12/19 02:48:10;;;;;;;34.13;16.30;;;-3.30;78.70;;;-4.28;78.83;99084.38;5010347;28;20463;-76
2022/12/19 02:50:40;;;;;;;37.03;20.60;;;-3.40;78.50;;;-4.16;78.35;99091.53;5011164;28;20450;-76
2022/12/19 02:53:10;;;;;;;39.97;20.70;;;-3.30;78.60;;;-4.19;78.56;99080.31;5010275;28;21011;-76
2022/12/19 02:56:01;;;;;;;36.90;19.70;;;-3.30;78.30;;;-4.25;78.49;99054.31;5009275;28;20443;-75
2022/12/19 02:58:46;;;;;;;34.57;20.37;;;-3.30;78.20;;;-4.26;78.76;99077.19;5011218;28;20448;-77
2022/12/19 03:01:27;;;;;;;39.30;22.47;;;-3.20;78.40;;;-3.87;77.93;99090.63;5014159;28;20452;-76
2022/12/19 03:04:10;;;;;;;39.17;21.40;;;-3.20;78.50;;;-3.77;77.55;99091.75;5009896;28;20866;-76
2022/12/19 03:06:47;;;;;;;36.47;21.40;;;-3.10;78.70;;;-3.92;77.81;99098.00;5013967;28;20525;-76
2022/12/19 03:09:22;;;;;;;38.60;21.57;;;-3.10;78.10;;;-3.94;78.07;99087.56;5018434;28;20538;-76
2022/12/19 03:11:57;;;;;;;39.33;20.97;;;-3.10;78.20;;;-3.61;77.49;99078.44;5021905;28;20556;-77
2022/12/19 03:14:26;;;;;;;28.33;17.80;;;-3.00;78.50;;;-4.04;78.38;99070.59;5026040;28;20541;-76
2022/12/19 03:16:54;;;;;;;37.27;21.63;;;-3.00;77.90;;;-4.17;78.82;99042.31;5029222;28;20811;-76
2022/12/19 03:19:23;;;;;;;35.77;21.70;;;-3.10;78.20;;;-3.88;78.22;99049.31;5022099;28;20456;-76
2022/12/19 03:21:51;;;;;;;39.40;22.13;;;-3.00;78.50;;;-3.76;77.91;99051.19;5010315;28;20448;-75
2022/12/19 03:24:19;;;;;;;31.27;19.33;;;-3.00;78.40;;;-4.50;78.09;98955.56;5013371;28;20792;-75
2022/12/19 03:26:53;;;;;;;37.97;21.10;;;-3.00;78.10;;;-3.74;78.25;99041.38;5012940;28;20582;-77
2022/12/19 03:29:26;;;;;;;34.70;20.00;;;-3.00;78.50;;;-3.64;78.03;99033.72;5030602;28;20945;-76
2022/12/19 03:31:54;;;;;;;35.57;20.37;;;-2.90;78.50;;;-3.68;78.17;99042.78;5017696;28;20455;-76
2022/12/19 03:34:28;;;;;;;37.47;20.97;;;-2.90;78.40;;;-3.87;78.88;99032.53;5009699;28;20483;-76
2022/12/19 03:37:01;;;;;;;36.83;21.27;;;-3.00;78.70;;;-3.89;78.54;99019.44;5010810;28;20471;-77
2022/12/19 03:39:30;;;;;;;34.53;20.70;;;-2.90;78.60;;;-3.70;78.78;99049.94;5018978;28;20453;-78
2022/12/19 03:44:44;;;;;;;33.73;20.10;;;-2.80;78.70;;;-3.65;77.99;99047.00;5027610;28;20805;-74
2022/12/19 03:47:17;;;;;;;35.20;21.83;;;-2.80;78.50;;;-3.47;77.62;99053.75;5016829;28;21184;-77
2022/12/19 03:49:47;;;;;;;34.87;19.27;;;-2.70;78.10;;;-3.72;78.01;99078.25;5010582;28;20936;-76
2022/12/19 03:52:27;;;;;;;37.73;19.57;;;-2.70;78.20;;;-3.93;79.06;99044.38;5013289;28;20478;-77
2022/12/19 03:55:04;;;;;;;36.30;19.53;;;-2.80;78.60;;;-3.89;78.89;99034.44;5012041;28;20471;-75
2022/12/19 03:57:35;;;;;;;39.73;20.50;;;-2.90;78.50;;;-3.89;79.24;99008.03;5012824;28;20447;-77
2022/12/19 04:00:07;;;;;;;36.17;19.87;;;-2.80;78.60;;;-3.82;79.40;98982.94;5021931;28;20555;-77
2022/12/19 04:02:38;;;;;;;39.43;21.47;;;-2.80;78.70;;;-3.82;78.93;98961.78;5020146;28;20458;-76
2022/12/19 04:05:12;;;;;;;37.40;19.90;;;-2.80;78.50;;;-3.76;78.95;99008.94;5033116;28;20447;-77
2022/12/19 04:07:41;;;;;;;32.63;18.90;;;-2.80;78.90;;;-3.87;79.33;98977.06;5023427;28;20517;-78
2022/12/19 04:10:14;;;;;;;29.73;18.23;;;-2.80;79.20;;;-3.81;79.32;98981.97;5012121;28;20960;-76
2022/12/19 04:12:47;;;;;;;38.50;23.60;;;-2.80;79.00;;;-3.89;79.90;98940.22;5020001;28;20975;-76
2022/12/19 04:15:15;;;;;;;41.50;19.87;;;-2.80;79.30;;;-3.62;79.26;99036.25;5018900;28;20505;-74
2022/12/19 04:17:47;;;;;;;33.17;18.70;;;-2.70;79.80;;;-3.63;79.58;99040.69;5012052;28;21044;-76
2022/12/19 04:20:18;;;;;;;34.77;20.27;;;-2.70;79.70;;;-3.46;79.07;99042.22;5014075;28;20448;-77
2022/12/19 04:22:53;;;;;;;38.43;21.30;;;-2.70;79.60;;;-3.55;79.07;99045.47;5013525;28;20452;-77
2022/12/19 04:25:26;;;;;;;39.10;22.23;;;-2.70;79.20;;;-4.00;78.98;98975.25;5011924;28;20458;-77
2022/12/19 04:27:59;;;;;;;42.83;23.37;;;-2.60;79.30;;;-3.43;78.92;99041.19;5011999;28;20448;-76
2022/12/19 04:30:26;;;;;;;32.00;16.17;;;-2.60;79.20;;;-3.42;78.05;99045.50;5013920;28;20499;-78
2022/12/19 04:32:54;;;;;;;35.10;20.60;;;-2.50;78.30;;;-3.50;78.32;99030.16;5012198;28;20511;-74
2022/12/19 04:35:23;;;;;;;35.90;20.33;;;-2.60;78.20;;;-3.39;78.93;99039.19;5019961;28;20453;-76
2022/12/19 04:37:51;;;;;;;40.63;20.50;;;-2.60;78.80;;;-3.50;78.72;99029.28;5033456;28;20454;-77
2022/12/19 04:40:18;;;;;;;37.57;21.03;;;-2.50;78.30;;;-3.32;77.70;99028.09;5031446;28;20857;-78
2022/12/19 04:42:45;;;;;;;35.27;21.57;;;-2.50;78.00;;;-3.22;76.95;99012.47;5021695;28;20443;-76
2022/12/19 04:45:13;;;;;;;29.93;17.60;;;-2.40;77.80;;;-3.61;78.34;98985.97;5012095;28;20948;-77
2022/12/19 04:47:40;;;;;;;39.07;21.80;;;-2.50;77.60;;;-3.62;78.86;99044.16;5013302;28;20902;-76
2022/12/19 04:50:09;;;;;;;32.17;20.20;;;-2.60;78.10;;;-3.60;79.49;99021.13;5013376;28;20459;-79
2022/12/19 04:52:38;;;;;;;30.00;18.27;;;-2.60;78.80;;;-3.39;78.94;99015.41;5011925;28;20466;-78
2022/12/19 04:55:07;;;;;;;40.27;20.77;;;-2.50;79.20;;;-3.29;78.36;99033.19;5011836;28;20511;-77
2022/12/19 04:57:34;;;;;;;36.33;20.70;;;-2.40;78.90;;;-3.45;78.49;99028.06;5014562;28;20447;-76
2022/12/19 05:00:02;;;;;;;34.83;19.17;;;-2.40;78.60;;;-3.16;78.10;99075.50;5019828;28;20468;-79
2022/12/19 05:02:29;;;;;;;39.23;22.20;;;-2.40;78.70;;;-3.68;78.09;98999.66;5032273;28;20438;-79
2022/12/19 05:04:57;;;;;;;35.83;20.60;;;-2.30;78.50;;;-3.23;77.83;99052.22;5014364;28;20451;-77
2022/12/19 05:07:24;;;;;;;36.73;21.80;;;-2.30;78.40;;;-3.37;78.48;99071.66;5013997;28;20456;-78
2022/12/19 05:09:53;;;;;;;36.60;20.07;;;-2.40;78.70;;;-3.34;79.05;99051.13;5012772;28;20523;-77
2022/12/19 05:12:20;;;;;;;40.20;21.47;;;-2.40;79.00;;;-3.42;79.47;99041.06;5016815;28;20456;-77
2022/12/19 05:14:47;;;;;;;36.03;18.77;;;-2.40;78.90;;;-3.39;79.73;99042.66;5010533;28;21033;-76
2022/12/19 05:17:14;;;;;;;35.30;18.57;;;-2.50;79.60;;;-3.55;79.46;99026.97;5015753;28;20447;-76
2022/12/19 05:19:41;;;;;;;34.37;19.60;;;-2.50;79.30;;;-3.35;79.72;99022.16;5012678;28;20510;-76
2022/12/19 05:22:09;;;;;;;37.93;20.23;;;-2.40;80.10;;;-3.38;80.27;99017.09;5012763;28;20928;-76
2022/12/19 05:24:36;;;;;;;39.77;21.97;;;-2.40;80.60;;;-3.34;80.59;99006.19;5012689;28;20451;-77
2022/12/19 05:27:05;;;;;;;40.20;20.00;;;-2.40;81.20;;;-3.32;80.29;99016.66;5012085;28;20495;-76
2022/12/19 05:29:32;;;;;;;32.27;19.97;;;-2.40;81.10;;;-3.49;80.89;99016.00;5012592;28;20501;-78
2022/12/19 05:31:59;;;;;;;31.77;19.20;;;-2.50;81.80;;;-3.40;80.71;99008.41;5013774;28;21005;-78
2022/12/19 05:34:26;;;;;;;37.83;21.60;;;-2.50;81.80;;;-3.36;80.68;99015.19;5013242;28;20537;-77
2022/12/19 05:36:53;;;;;;;37.93;21.63;;;-2.40;81.50;;;-3.23;80.08;99008.13;5024902;28;20456;-78
2022/12/19 05:39:20;;;;;;;36.17;20.37;;;-2.40;82.30;;;-3.24;79.85;99030.25;5029968;28;20471;-76
2022/12/19 05:41:47;;;;;;;39.97;22.07;;;-2.30;81.80;;;-3.32;80.69;99035.19;5050615;28;20451;-77
2022/12/19 05:44:16;;;;;;;44.13;22.50;;;-2.40;81.80;;;-3.05;80.59;99021.88;5036388;28;20454;-78
2022/12/19 05:46:43;;;;;;;38.50;21.10;;;-2.30;83.00;;;-3.30;80.88;99025.34;5019577;28;20964;-76
2022/12/19 05:49:10;;;;;;;42.13;22.50;;;-2.30;81.80;;;-3.20;80.28;99022.94;5021290;28;20448;-75
2022/12/19 05:51:38;;;;;;;36.83;20.87;;;-2.30;81.90;;;-3.15;79.83;99019.03;5012418;28;20456;-77
2022/12/19 05:54:05;;;;;;;38.93;20.00;;;-2.30;81.50;;;-3.24;80.87;99027.59;5009797;28;20500;-76
2022/12/19 05:56:33;;;;;;;39.60;22.27;;;-2.30;82.10;;;-3.40;80.84;99024.28;5011638;28;20460;-76
2022/12/19 05:59:00;;;;;;;46.10;23.20;;;-2.40;81.70;;;-3.22;81.28;99011.63;5012666;28;20552;-77
2022/12/19 06:01:29;;;;;;;46.20;22.30;;;-2.40;82.90;;;-3.15;80.84;99013.75;5021987;28;20456;-76
2022/12/19 06:03:56;;;;;;;35.13;20.87;;;-2.30;83.10;;;-2.74;82.82;99014.50;5012531;28;20572;-77
2022/12/19 06:06:25;;;;;;;49.13;22.30;;;-2.00;88.30;;;-2.83;81.72;99006.34;5009557;28;20955;-77
2022/12/19 06:08:54;;;;;;;44.57;22.60;;;-2.10;84.90;;;-3.51;81.32;98916.63;5011798;28;20976;-77
2022/12/19 06:11:21;;;;;;;39.50;22.20;;;-2.00;84.00;;;-2.78;80.78;99006.91;5014210;28;20837;-77
2022/12/19 06:13:48;;;;;;;39.33;22.50;;;-2.10;84.30;;;-3.01;80.47;99001.38;5010996;28;20496;-78
2022/12/19 06:16:19;;;;;;;44.60;23.03;;;-2.00;82.60;;;-3.05;80.24;99006.03;5011382;28;20497;-75
2022/12/19 06:18:47;;;;;;;38.60;22.30;;;-2.00;81.60;;;-2.95;79.92;99023.94;5012486;28;20455;-77
2022/12/19 06:21:16;;;;;;;36.50;20.90;;;-2.10;81.20;;;-3.13;80.82;99016.28;5011508;28;20494;-78
2022/12/19 06:23:45;;;;;;;37.20;21.00;;;-2.20;81.50;;;-3.07;80.78;99007.09;5010220;28;20517;-76
2022/12/19 06:26:15;;;;;;;41.67;23.50;;;-2.20;83.10;;;-3.07;80.48;99022.97;5017687;28;20466;-76
2022/12/19 06:28:42;;;;;;;32.30;20.50;;;-2.20;82.00;;;-3.04;80.32;99017.47;5028256;28;20439;-76
2022/12/19 06:31:12;;;;;;;40.03;22.63;;;-2.20;82.40;;;-2.97;80.25;99009.97;5030618;28;20926;-73
2022/12/19 06:33:39;;;;;;;39.20;21.93;;;-2.10;82.20;;;-3.08;80.49;99013.34;5012016;28;20476;-75
2022/12/19 06:36:14;;;;;;;41.83;22.23;;;-2.20;81.90;;;-2.77;79.99;99032.41;5009564;28;20491;-77
2022/12/19 06:38:41;;;;;;;35.53;20.37;;;-2.00;82.50;;;-2.65;79.50;99031.56;5011216;28;20773;-77
2022/12/19 06:43:58;;;;;;;38.00;19.20;;;-2.00;81.20;;;-3.21;80.61;98993.00;5015970;28;20459;-78
2022/12/19 06:46:26;;;;;;;37.43;21.13;;;-2.20;81.30;;;-3.02;80.25;99019.06;5010871;28;20479;-74
2022/12/19 06:48:54;;;;;;;33.90;19.30;;;-2.10;82.10;;;-2.95;80.50;99014.19;5014104;28;20472;-76
2022/12/19 06:51:22;;;;;;;39.70;22.33;;;-2.10;82.60;;;-2.77;81.09;99016.53;5015091;28;20805;-74
2022/12/19 06:53:50;;;;;;;38.00;22.30;;;-2.00;83.00;;;-3.08;81.10;99010.69;5018709;28;20459;-77
2022/12/19 06:56:19;;;;;;;37.17;22.17;;;-2.10;82.30;;;-2.77;81.05;99016.53;5020979;28;20444;-76
2022/12/19 06:58:46;;;;;;;36.33;21.40;;;-1.90;83.90;;;-2.75;80.70;99004.03;5009925;28;20543;-76
2022/12/19 07:01:17;;;;;;;40.60;23.40;;;-1.90;83.90;;;-2.61;81.33;99016.31;5015624;28;20456;-77
2022/12/19 07:03:46;;;;;;;38.70;22.83;;;-1.80;84.70;;;-2.57;80.17;99007.22;5013390;28;20475;-78
2022/12/19 07:06:14;;;;;;;42.93;23.90;;;-1.80;82.70;;;-2.45;80.69;99013.44;5010747;28;20513;-77
2022/12/19 07:08:43;;;;;;;37.37;19.93;;;-1.60;83.10;;;-2.43;80.61;99015.03;5010804;28;20530;-78
2022/12/19 07:11:10;;;;;;;45.40;23.23;;;-1.60;83.00;;;-2.47;79.88;98975.66;5014262;28;20453;-76
2022/12/19 07:13:37;;;;;;;39.17;22.13;;;-1.60;83.30;;;-2.34;80.82;99008.25;5010168;28;20480;-77
2022/12/19 07:16:06;;;;;;;39.90;21.23;;;-1.50;84.10;;;-2.59;80.52;99004.66;5008771;28;20479;-77
2022/12/19 07:18:38;;;;;;;43.00;23.47;;;-1.60;81.90;;;-2.55;81.12;99007.97;5014770;28;20518;-79
2022/12/19 07:21:07;;;;;;;39.67;22.80;;;-1.70;83.20;;;-2.60;81.39;99013.56;5011052;28;20452;-80
2022/12/19 07:23:35;;;;;;;41.87;23.10;;;-1.70;84.00;;;-2.34;81.07;99012.69;5011177;28;20459;-79
2022/12/19 07:26:04;;;;;;;40.83;22.73;;;-1.60;84.90;;;-2.51;81.61;99000.63;5019370;28;20451;-77
2022/12/19 07:28:34;;;;;;;42.10;23.90;;;-1.70;84.30;;;-2.64;81.41;98990.91;5023467;28;20486;-79
2022/12/19 07:31:01;;;;;;;46.07;24.40;;;-1.70;83.30;;;-2.30;81.44;99008.84;5030581;28;20454;-79
2022/12/19 07:33:28;;;;;;;40.93;22.33;;;-1.60;85.40;;;-2.24;80.77;99004.91;5019859;28;20804;-79
2022/12/19 07:35:56;;;;;;;49.00;24.73;;;-1.50;84.80;;;-2.42;81.23;98992.03;5033019;28;20462;-80
2022/12/19 07:38:23;;;;;;;45.80;24.03;;;-1.60;84.30;;;-2.39;81.27;98962.69;5034787;28;20445;-78
2022/12/19 07:40:50;;;;;;;42.10;22.50;;;-1.50;84.30;;;-2.38;81.65;98984.75;5033857;28;20436;-80
2022/12/19 07:43:19;;;;;;;45.90;25.50;;;-1.50;84.00;;;-2.20;81.18;98979.91;5033541;28;20453;-80
2022/12/19 07:45:46;;;;;;;42.60;24.60;;;-1.50;85.00;;;-2.38;81.58;98980.28;5027612;28;20468;-80
2022/12/19 07:48:13;;;;;;;48.17;25.30;;;-1.50;84.70;;;-2.29;82.13;98971.69;5013667;28;20473;-76
2022/12/19 07:50:41;;;;;;;40.23;23.23;;;-1.50;85.70;;;-2.42;81.96;98989.41;5013950;28;20972;-78
2022/12/19 07:53:08;;;;;;;44.13;23.47;;;-1.50;84.60;;;-2.38;82.53;98969.69;5016527;28;20538;-79
2022/12/19 07:55:35;;;;;;;43.70;24.77;;;-1.50;86.40;;;-2.13;82.30;98981.19;5028689;28;20475;-80
2022/12/19 07:58:02;;;;;;;48.33;24.20;;;-1.40;86.40;;;-2.19;82.08;98984.28;5014110;28;20456;-80
2022/12/19 08:00:31;;;;;;;44.37;24.27;;;-1.40;86.40;;;-2.09;81.76;99001.19;5018408;28;20456;-79
2022/12/19 08:02:59;;;;;;;49.30;24.97;;;-1.30;86.00;;;-2.16;81.99;98997.28;5023794;28;20464;-78
2022/12/19 08:05:26;;;;;;;49.27;25.80;;;-1.30;85.90;;;-1.95;81.56;98996.69;5034195;28;20468;-79
2022/12/19 08:07:54;;;;;;;50.90;26.17;;;-1.30;86.60;;;-1.95;81.32;98991.38;5014337;28;20453;-80
2022/12/19 08:10:22;;;;;;;43.17;24.70;;;-1.20;85.10;;;-2.21;81.93;98976.44;5019402;28;20448;-78
2022/12/19 08:12:49;;;;;;;44.37;24.40;;;-1.30;85.00;;;-1.87;81.57;98989.03;5026672;28;20457;-79
2022/12/19 08:15:17;;;;;;;46.23;23.87;;;-1.10;85.20;;;-2.05;80.85;98972.69;5030941;28;20479;-78
2022/12/19 08:17:45;;;;;;;47.00;24.27;;;-1.10;84.50;;;-1.84;81.30;98978.22;5027776;28;20432;-76
2022/12/19 08:20:12;;;;;;;44.13;25.73;;;-1.10;84.70;;;-1.93;81.59;98977.09;5026771;28;20452;-77
2022/12/19 08:22:40;;;;;;;44.50;23.30;;;-1.10;85.20;;;-1.74;81.15;98983.69;5017956;28;20451;-78
2022/12/19 08:25:08;;;;;;;41.90;23.10;;;-1.10;85.10;;;-1.88;81.59;98987.34;5019161;28;20456;-79
2022/12/19 08:27:36;;;;;;;44.50;24.60;;;-1.00;84.80;;;-1.75;80.94;98988.13;5016095;28;20509;-79
2022/12/19 08:30:04;;;;;;;42.00;24.93;;;-1.00;84.30;;;-1.87;81.88;98994.34;5015269;28;20829;-78
2022/12/19 08:32:31;;;;;;;41.73;24.27;;;-1.00;85.00;;;-1.73;80.89;98995.97;5012481;28;20456;-80
2022/12/19 08:35:00;;;;;;;48.20;23.40;;;-0.90;84.60;;;-1.75;80.69;98982.81;5013281;28;20475;-78
2022/12/19 08:37:27;;;;;;;45.10;24.30;;;-0.90;83.80;;;-1.74;81.22;98999.56;5013631;28;20503;-79
2022/12/19 08:39:54;;;;;;;44.73;25.03;;;-0.90;83.20;;;-1.44;80.53;98993.81;5013992;28;20460;-79
2022/12/19 08:42:22;;;;;;;44.30;25.10;;;-0.80;83.80;;;-1.62;80.84;98996.03;5016533;28;20508;-79
2022/12/19 08:44:49;;;;;;;46.63;24.50;;;-0.80;83.40;;;-1.62;80.61;99003.13;5014360;28;20489;-77
2022/12/19 08:47:16;;;;;;;47.70;28.60;;;-0.70;83.40;;;-1.33;79.57;98997.44;5015413;28;20536;-76
2022/12/19 08:49:44;;;;;;;56.83;27.53;;;-0.70;83.40;;;-1.42;80.32;98993.69;5018473;28;20467;-79
2022/12/19 08:52:12;;;;;;;44.40;24.60;;;-0.70;83.30;;;-1.29;80.24;98988.31;5012862;28;20444;-79
2022/12/19 08:54:39;;;;;;;46.27;23.83;;;-0.60;83.30;;;-1.49;80.53;98988.00;5013721;28;20546;-77
2022/12/19 08:57:06;;;;;;;42.27;24.93;;;-0.70;83.00;;;-1.48;80.90;98981.72;5029844;28;20455;-80
2022/12/19 08:59:33;;;;;;;42.23;22.13;;;-0.70;83.90;;;-1.46;80.54;98982.47;5013373;28;20881;-78
2022/12/19 09:02:01;;;;;;;45.60;24.10;;;-0.70;83.80;;;-1.47;80.96;98986.06;5013934;28;20457;-77
2022/12/19 09:04:28;;;;;;;42.20;24.20;;;-0.60;83.50;;;-1.39;80.38;98982.03;5011385;28;20512;-79
2022/12/19 09:06:56;;;;;;;40.17;23.37;;;-0.60;83.80;;;-1.31;80.02;98992.88;5013549;28;20484;-78
2022/12/19 09:09:24;;;;;;;48.93;26.00;;;-0.50;82.60;;;-1.15;80.20;98990.75;5013110;28;20519;-82
2022/12/19 09:11:51;;;;;;;46.10;26.17;;;-0.40;82.80;;;-1.23;79.42;98997.59;5016758;28;20463;-81
2022/12/19 09:14:19;;;;;;;47.13;23.70;;;-0.40;81.90;;;-1.20;79.61;98992.09;5017876;28;20562;-81
2022/12/19 09:16:46;;;;;;;36.77;19.90;;;-0.40;82.30;;;-1.21;79.21;98985.09;5021143;28;20480;-78
2022/12/19 09:19:15;;;;;;;43.67;24.07;;;-0.40;82.10;;;-1.22;79.57;98986.88;5032616;28;20526;-77
2022/12/19 09:21:42;;;;;;;48.67;25.97;;;-0.40;81.80;;;-0.94;79.22;98990.09;5030605;28;20432;-81
2022/12/19 09:24:10;;;;;;;49.27;27.80;;;-0.30;82.20;;;-1.02;78.72;98989.81;5031316;28;20522;-77
2022/12/19 09:26:40;;;;;;;52.20;27.37;;;-0.20;80.90;;;-0.92;79.44;98996.13;5017779;28;20880;-79
2022/12/19 09:29:08;;;;;;;38.73;22.53;;;-0.10;81.30;;;-0.80;78.69;98982.88;5017268;28;20451;-78
2022/12/19 09:31:36;;;;;;;49.10;27.10;;;-0.10;81.30;;;-0.80;78.01;98993.50;5020055;28;20488;-80
2022/12/19 09:34:03;;;;;;;43.87;23.90;;;0.00;80.50;;;-0.72;78.00;98988.41;5031723;28;20460;-80
2022/12/19 09:36:30;;;;;;;48.37;24.63;;;0.00;80.30;;;-0.83;77.99;98978.66;5032422;28;20610;-78
2022/12/19 09:38:59;;;;;;;43.60;25.97;;;0.00;79.90;;;-0.72;78.03;98991.94;5031150;28;20460;-80
2022/12/19 09:42:15;;;;;;;43.80;25.13;;;0.10;79.90;;;-0.47;77.41;98995.31;5047508;28;20458;-78
2022/12/19 09:44:59;;;;;;;40.60;24.17;;;0.20;79.60;;;-0.73;77.27;98962.84;5023753;28;20973;-76
2022/12/19 09:47:30;;;;;;;41.03;23.60;;;0.30;79.50;;;-0.75;77.83;98988.66;5019302;28;20456;-80
2022/12/19 09:49:59;;;;;;;47.10;25.17;;;0.10;80.00;;;-0.82;78.51;98992.78;5011940;28;20973;-80
2022/12/19 09:52:33;;;;;;;45.30;22.83;;;0.00;80.40;;;-0.82;78.59;98984.81;5011125;28;20453;-78
2022/12/19 09:55:06;;;;;;;41.13;24.47;;;0.00;80.10;;;-0.61;77.90;98980.47;5009026;28;20881;-79
2022/12/19 09:57:44;;;;;;;39.83;22.70;;;0.10;80.40;;;-0.45;77.30;98977.47;5012127;28;20973;-77
2022/12/19 10:00:15;;;;;;;46.67;24.60;;;0.30;80.20;;;-0.24;77.17;98967.88;5018709;28;20938;-82
2022/12/19 10:02:47;;;;;;;47.20;25.40;;;0.40;79.80;;;-0.32;76.79;98979.97;5029926;28;20540;-79
2022/12/19 10:05:23;;;;;;;46.03;24.73;;;0.40;79.50;;;0.12;75.83;98985.34;5009931;28;20832;-78
2022/12/19 10:07:50;;;;;;;48.53;26.27;;;0.70;79.40;;;0.15;75.45;98976.28;5010950;28;20534;-78
2022/12/19 10:10:24;;;;;;;45.07;26.57;;;0.80;78.70;;;0.22;75.66;98958.00;5011074;28;20482;-80
2022/12/19 10:13:14;;;;;;;40.93;23.63;;;0.80;78.60;;;-0.07;76.26;98966.53;5030164;28;20537;-78
2022/12/19 10:15:54;;;;;;;44.20;23.87;;;0.70;78.10;;;-0.09;75.96;98969.31;5010256;28;20509;-77
2022/12/19 10:18:38;;;;;;;49.10;24.27;;;0.60;78.40;;;0.01;76.12;98957.94;5011018;28;20848;-78
2022/12/19 10:21:13;;;;;;;41.47;22.83;;;0.80;78.40;;;0.02;75.09;98963.16;5010694;28;20456;-80
2022/12/19 10:24:20;;;;;;;42.00;23.60;;;0.80;78.10;;;-0.20;76.15;98967.53;5014581;28;20447;-81
2022/12/19 10:26:51;;;;;;;43.03;24.17;;;0.70;78.30;;;-0.25;76.14;98971.50;4979659;28;20471;-80